createdAt,value
2023-01-31T00:01:37.809Z,101894.50
2023-01-31T00:04:26.750Z,101898.69
2023-01-31T00:07:13.336Z,101894.41
2023-01-31T00:09:59.999Z,101892.84
2023-01-31T00:12:46.614Z,101899.06
2023-01-31T00:15:33.261Z,101900.91
2023-01-31T00:18:19.898Z,101897.34
2023-01-31T00:21:14.182Z,101896.38
2023-01-31T00:24:03.383Z,101902.00
2023-01-31T00:26:56.741Z,101908.34
2023-01-31T00:29:43.566Z,101902.41
2023-01-31T00:32:30.340Z,101899.84
2023-01-31T00:35:16.980Z,101896.16
2023-01-31T00:38:03.610Z,101896.03
2023-01-31T00:40:53.742Z,101891.66
2023-01-31T00:43:40.397Z,101892.38
2023-01-31T00:46:27.183Z,101891.41
2023-01-31T00:49:15.551Z,101892.88
2023-01-31T00:52:02.211Z,101890.94
2023-01-31T00:54:48.837Z,101887.78
2023-01-31T00:57:35.838Z,101884.38
2023-01-31T01:00:23.962Z,101882.94
2023-01-31T01:03:10.559Z,101881.13
2023-01-31T01:05:57.185Z,101882.47
2023-01-31T01:08:44.404Z,101891.66
2023-01-31T01:11:32.237Z,101891.78
2023-01-31T01:14:18.916Z,101900.19
2023-01-31T01:17:05.544Z,101895.69
2023-01-31T01:19:52.197Z,101899.59
2023-01-31T01:22:39.059Z,101898.63
2023-01-31T01:25:25.673Z,101899.09
2023-01-31T01:28:12.635Z,101906.91
2023-01-31T01:30:59.410Z,101905.91
2023-01-31T01:33:47.085Z,101903.84
2023-01-31T01:36:34.896Z,101895.66
2023-01-31T01:39:21.656Z,101888.72
2023-01-31T01:42:14.085Z,101892.97
2023-01-31T01:45:01.708Z,101904.56
2023-01-31T01:47:50.125Z,101898.22
2023-01-31T01:50:39.733Z,101902.75
2023-01-31T01:53:28.598Z,101897.38
2023-01-31T01:56:24.021Z,101891.78
2023-01-31T01:59:15.114Z,101887.34
2023-01-31T02:02:01.947Z,101890.03
2023-01-31T02:04:50.248Z,101890.91
2023-01-31T02:07:36.957Z,101886.66
2023-01-31T02:10:38.923Z,101877.63
2023-01-31T02:13:26.079Z,101878.72
2023-01-31T02:16:12.955Z,101880.41
2023-01-31T02:19:00.169Z,101881.28
2023-01-31T02:21:46.810Z,101879.84
2023-01-31T02:24:52.028Z,101894.44
2023-01-31T02:27:47.786Z,101883.34
2023-01-31T02:30:40.293Z,101887.16
2023-01-31T02:33:27.194Z,101890.69
2023-01-31T02:36:32.281Z,101876.66
2023-01-31T02:39:18.885Z,101879.09
2023-01-31T02:42:05.449Z,101886.91
2023-01-31T02:45:12.393Z,101875.91
2023-01-31T02:48:10.184Z,101872.91
2023-01-31T02:51:13.826Z,101871.56
2023-01-31T02:54:07.745Z,101871.06
2023-01-31T02:56:54.556Z,101869.38
2023-01-31T02:59:44.289Z,101877.56
2023-01-31T03:02:31.001Z,101877.94
2023-01-31T03:05:19.647Z,101879.84
2023-01-31T03:08:07.830Z,101886.44
2023-01-31T03:11:05.514Z,101874.25
2023-01-31T03:13:56.433Z,101884.22
2023-01-31T03:17:21.789Z,101885.47
2023-01-31T03:20:12.153Z,101887.16
2023-01-31T03:23:01.639Z,101886.56
2023-01-31T03:25:49.504Z,101885.09
2023-01-31T03:28:41.611Z,101879.97
2023-01-31T03:31:28.354Z,101876.44
2023-01-31T03:34:16.008Z,101869.50
2023-01-31T03:37:04.345Z,101860.38
2023-01-31T03:39:56.332Z,101862.53
2023-01-31T03:42:51.163Z,101861.69
2023-01-31T03:45:50.159Z,101861.91
2023-01-31T03:48:42.435Z,101870.56
2023-01-31T03:51:31.505Z,101867.91
2023-01-31T03:54:29.034Z,101868.59
2023-01-31T03:57:20.383Z,101868.13
2023-01-31T04:00:09.266Z,101869.34
2023-01-31T04:03:00.958Z,101868.47
2023-01-31T04:05:49.068Z,101870.28
2023-01-31T04:08:36.009Z,101874.41
2023-01-31T04:11:27.580Z,101865.03
2023-01-31T04:14:16.084Z,101863.81
2023-01-31T04:17:02.715Z,101855.03
2023-01-31T04:19:51.433Z,101848.31
2023-01-31T04:22:38.081Z,101846.41
2023-01-31T04:25:24.691Z,101844.81
2023-01-31T04:28:11.459Z,101845.53
2023-01-31T04:30:58.054Z,101842.97
2023-01-31T04:33:45.656Z,101850.41
2023-01-31T04:36:32.336Z,101832.03
2023-01-31T04:39:18.982Z,101833.97
2023-01-31T04:42:05.629Z,101837.38
2023-01-31T04:44:52.200Z,101832.44
2023-01-31T04:47:38.882Z,101829.25
2023-01-31T04:50:25.549Z,101828.25
2023-01-31T04:53:12.104Z,101824.69
2023-01-31T04:56:08.084Z,101820.56
2023-01-31T04:58:54.856Z,101818.47
2023-01-31T05:01:42.087Z,101821.88
2023-01-31T05:04:28.678Z,101821.03
2023-01-31T05:07:15.320Z,101810.56
2023-01-31T05:10:02.133Z,101817.78
2023-01-31T05:12:48.767Z,101819.72
2023-01-31T05:15:35.409Z,101821.41
2023-01-31T05:18:23.203Z,101815.75
2023-01-31T05:21:10.400Z,101816.06
2023-01-31T05:23:56.961Z,101809.25
2023-01-31T05:26:43.651Z,101811.19
2023-01-31T05:29:33.597Z,101807.94
2023-01-31T05:32:20.689Z,101800.78
2023-01-31T05:35:08.648Z,101803.47
2023-01-31T05:37:55.342Z,101808.25
2023-01-31T05:40:41.985Z,101815.41
2023-01-31T05:43:28.674Z,101812.97
2023-01-31T05:46:18.126Z,101813.31
2023-01-31T05:49:04.912Z,101808.97
2023-01-31T05:51:51.562Z,101809.41
2023-01-31T05:54:38.202Z,101815.97
2023-01-31T05:57:24.834Z,101813.06
2023-01-31T06:00:11.831Z,101812.09
2023-01-31T06:02:59.695Z,101824.88
2023-01-31T06:05:46.581Z,101813.31
2023-01-31T06:08:33.365Z,101807.97
2023-01-31T06:11:20.002Z,101806.66
2023-01-31T06:14:06.745Z,101812.44
2023-01-31T06:16:53.419Z,101803.41
2023-01-31T06:19:40.021Z,101804.75
2023-01-31T06:22:26.638Z,101794.50
2023-01-31T06:25:13.229Z,101797.78
2023-01-31T06:27:59.800Z,101797.16
2023-01-31T06:30:46.514Z,101784.41
2023-01-31T06:33:44.692Z,101776.38
2023-01-31T06:36:34.104Z,101770.41
2023-01-31T06:39:20.865Z,101780.13
2023-01-31T06:42:07.662Z,101778.44
2023-01-31T06:44:54.894Z,101773.41
2023-01-31T06:47:41.581Z,101770.41
2023-01-31T06:50:31.657Z,101758.31
2023-01-31T06:53:18.336Z,101777.97
2023-01-31T06:56:06.448Z,101776.91
2023-01-31T06:58:53.670Z,101780.19
2023-01-31T07:01:40.357Z,101781.06
2023-01-31T07:04:26.975Z,101777.78
2023-01-31T07:07:13.703Z,101784.38
2023-01-31T07:10:00.483Z,101794.13
2023-01-31T07:12:47.051Z,101786.09
2023-01-31T07:15:33.718Z,101796.41
2023-01-31T07:18:18.751Z,101793.88
2023-01-31T07:21:06.283Z,101796.31
2023-01-31T07:23:52.976Z,101799.94
2023-01-31T07:26:39.817Z,101799.25
2023-01-31T07:29:26.605Z,101799.72
2023-01-31T07:32:15.821Z,101805.69
2023-01-31T07:35:02.469Z,101810.44
2023-01-31T07:37:51.789Z,101820.78
2023-01-31T07:40:40.081Z,101804.09
2023-01-31T07:43:27.226Z,101811.41
2023-01-31T07:46:15.844Z,101807.50
2023-01-31T07:49:10.130Z,101794.31
2023-01-31T07:51:58.494Z,101792.91
2023-01-31T07:54:45.059Z,101783.63
2023-01-31T07:57:32.140Z,101768.25
2023-01-31T08:00:35.994Z,101774.94
2023-01-31T08:03:33.691Z,101753.09
2023-01-31T08:06:20.555Z,101748.47
2023-01-31T08:09:08.106Z,101751.22
2023-01-31T08:11:54.822Z,101748.16
2023-01-31T08:14:41.476Z,101752.16
2023-01-31T08:17:28.079Z,101763.25
2023-01-31T08:20:14.727Z,101776.66
2023-01-31T08:23:01.414Z,101772.84
2023-01-31T08:25:48.147Z,101781.09
2023-01-31T08:28:35.058Z,101776.22
2023-01-31T08:31:23.834Z,101768.56
2023-01-31T08:34:10.814Z,101764.38
2023-01-31T08:36:57.477Z,101756.91
2023-01-31T08:39:46.529Z,101745.06
2023-01-31T08:42:33.125Z,101749.63
2023-01-31T08:45:20.095Z,101752.91
2023-01-31T08:48:06.925Z,101747.84
2023-01-31T08:50:53.706Z,101741.53
2023-01-31T08:53:41.391Z,101741.03
2023-01-31T08:56:28.190Z,101747.41
2023-01-31T08:59:15.198Z,101748.41
2023-01-31T09:02:02.256Z,101740.34
2023-01-31T09:04:49.597Z,101752.78
2023-01-31T09:07:38.887Z,101738.97
2023-01-31T09:10:26.785Z,101736.16
2023-01-31T09:13:13.409Z,101739.00
2023-01-31T09:16:01.134Z,101720.91
2023-01-31T09:18:47.795Z,101716.41
2023-01-31T09:21:34.555Z,101722.88
2023-01-31T09:24:21.271Z,101723.19
2023-01-31T09:27:08.006Z,101717.22
2023-01-31T09:29:54.849Z,101708.16
2023-01-31T09:32:41.849Z,101707.06
2023-01-31T09:35:28.495Z,101709.03
2023-01-31T09:38:15.092Z,101702.84
2023-01-31T09:41:04.655Z,101702.56
2023-01-31T09:43:57.505Z,101706.06
2023-01-31T09:46:53.466Z,101705.66
2023-01-31T09:49:46.009Z,101708.09
2023-01-31T09:52:33.266Z,101704.84
2023-01-31T09:55:23.421Z,101705.41
2023-01-31T09:58:23.219Z,101706.00
2023-01-31T10:01:09.926Z,101691.00
2023-01-31T10:04:15.531Z,101683.19
2023-01-31T10:07:14.381Z,101681.38
2023-01-31T10:10:08.770Z,101687.47
2023-01-31T10:12:57.883Z,101682.25
2023-01-31T10:15:48.078Z,101681.81
2023-01-31T10:18:39.205Z,101684.50
2023-01-31T10:21:33.843Z,101666.66
2023-01-31T10:24:24.038Z,101661.00
2023-01-31T10:27:19.149Z,101661.56
2023-01-31T10:30:10.169Z,101654.50
2023-01-31T10:33:00.596Z,101655.06
2023-01-31T10:35:48.201Z,101645.69
2023-01-31T10:38:41.288Z,101641.47
2023-01-31T10:41:49.660Z,101636.66
2023-01-31T10:44:41.949Z,101623.75
2023-01-31T10:47:37.702Z,101624.31
2023-01-31T10:50:59.950Z,101611.13
2023-01-31T10:54:04.602Z,101618.34
2023-01-31T10:56:51.265Z,101619.34
2023-01-31T10:59:40.832Z,101612.28
2023-01-31T11:02:28.643Z,101585.38
2023-01-31T11:05:18.488Z,101587.44
2023-01-31T11:08:23.906Z,101587.59
2023-01-31T11:11:21.658Z,101580.03
2023-01-31T11:14:18.004Z,101569.94
2023-01-31T11:17:04.637Z,101550.13
2023-01-31T11:19:52.670Z,101564.25
2023-01-31T11:22:41.112Z,101554.75
2023-01-31T11:25:29.307Z,101552.03
2023-01-31T11:28:24.415Z,101551.22
2023-01-31T11:30:52.568Z,101541.53
2023-01-31T11:33:48.906Z,101546.94
2023-01-31T11:36:26.651Z,101533.53
2023-01-31T11:39:31.985Z,101531.94
2023-01-31T11:42:17.431Z,101534.03
2023-01-31T11:45:17.607Z,101520.72
2023-01-31T11:48:14.699Z,101522.06
2023-01-31T11:51:03.125Z,101514.03
2023-01-31T11:53:43.656Z,101517.66
2023-01-31T11:56:15.772Z,101516.44
2023-01-31T11:58:44.770Z,101511.19
2023-01-31T12:01:22.655Z,101499.72
2023-01-31T12:04:01.834Z,101494.56
2023-01-31T12:06:31.580Z,101499.25
2023-01-31T12:08:58.830Z,101505.66
2023-01-31T12:11:35.673Z,101485.94
2023-01-31T12:14:16.101Z,101486.78
2023-01-31T12:16:43.687Z,101487.09
2023-01-31T12:19:13.101Z,101476.91
2023-01-31T12:22:03.864Z,101490.41
2023-01-31T12:24:39.168Z,101487.31
2023-01-31T12:27:12.334Z,101467.91
2023-01-31T12:29:57.880Z,101459.69
2023-01-31T12:32:27.227Z,101473.63
2023-01-31T12:35:08.736Z,101479.47
2023-01-31T12:37:45.465Z,101478.25
2023-01-31T12:40:25.562Z,101484.94
2023-01-31T12:43:03.634Z,101488.56
2023-01-31T12:45:51.345Z,101471.13
2023-01-31T12:48:28.300Z,101471.72
2023-01-31T12:50:57.684Z,101478.75
2023-01-31T12:53:30.267Z,101479.16
2023-01-31T12:55:59.496Z,101461.22
2023-01-31T12:58:31.853Z,101453.63
2023-01-31T13:01:52.366Z,101457.75
2023-01-31T13:04:22.326Z,101442.22
2023-01-31T13:06:59.066Z,101455.59
2023-01-31T13:09:48.561Z,101450.50
2023-01-31T13:12:35.662Z,101435.91
2023-01-31T13:15:28.598Z,101446.81
2023-01-31T13:18:14.505Z,101454.03
2023-01-31T13:21:01.960Z,101451.34
2023-01-31T13:23:49.883Z,101461.50
2023-01-31T13:27:08.264Z,101453.47
2023-01-31T13:29:52.177Z,101457.41
2023-01-31T13:32:30.347Z,101453.88
2023-01-31T13:35:00.624Z,101424.34
2023-01-31T13:37:48.443Z,101461.41
2023-01-31T13:40:35.995Z,101477.31
2023-01-31T13:43:21.099Z,101472.81
2023-01-31T13:46:07.421Z,101476.91
2023-01-31T13:48:55.616Z,101473.38
2023-01-31T13:51:43.883Z,101466.00
2023-01-31T13:54:50.738Z,101469.13
2023-01-31T13:57:46.665Z,101460.22
2023-01-31T14:00:32.142Z,101469.13
2023-01-31T14:03:02.911Z,101469.97
2023-01-31T14:05:51.242Z,101468.88
2023-01-31T14:08:36.209Z,101467.94
2023-01-31T14:11:22.889Z,101462.41
2023-01-31T14:14:09.567Z,101457.88
2023-01-31T14:16:56.324Z,101463.88
2023-01-31T14:19:45.589Z,101465.84
2023-01-31T14:22:36.437Z,101470.13
2023-01-31T14:25:41.175Z,101465.59
2023-01-31T14:28:27.877Z,101475.25
2023-01-31T14:31:14.676Z,101467.47
2023-01-31T14:34:02.252Z,101471.84
2023-01-31T14:37:07.803Z,101467.88
2023-01-31T14:39:58.777Z,101464.16
2023-01-31T14:42:59.348Z,101461.03
2023-01-31T14:45:39.745Z,101460.44
2023-01-31T14:48:43.529Z,101463.56
2023-01-31T14:51:45.578Z,101450.38
2023-01-31T14:54:33.389Z,101460.00
2023-01-31T14:57:23.678Z,101459.03
2023-01-31T14:59:54.012Z,101454.47
2023-01-31T15:02:30.842Z,101465.50
2023-01-31T15:05:16.582Z,101466.78
2023-01-31T15:08:00.130Z,101466.94
2023-01-31T15:10:45.529Z,101439.66
2023-01-31T15:13:30.687Z,101466.81
2023-01-31T15:15:58.234Z,101471.91
2023-01-31T15:18:26.708Z,101478.31
2023-01-31T15:21:12.264Z,101484.09
2023-01-31T15:23:42.157Z,101472.22
2023-01-31T15:26:08.805Z,101471.50
2023-01-31T15:28:39.973Z,101479.56
2023-01-31T15:31:26.717Z,101486.63
2023-01-31T15:33:58.456Z,101491.03
2023-01-31T15:37:03.521Z,101495.72
2023-01-31T15:39:40.463Z,101497.84
2023-01-31T15:42:26.105Z,101495.59
2023-01-31T15:45:11.683Z,101506.34
2023-01-31T15:47:38.313Z,101504.38
2023-01-31T15:50:19.073Z,101517.53
2023-01-31T15:52:46.262Z,101521.63
2023-01-31T15:55:14.517Z,101511.16
2023-01-31T15:57:58.014Z,101504.81
2023-01-31T16:00:31.665Z,101510.34
2023-01-31T16:03:01.409Z,101513.31
2023-01-31T16:05:31.575Z,101475.00
2023-01-31T16:07:59.048Z,101511.47
2023-01-31T16:10:27.460Z,101525.47
2023-01-31T16:13:00.635Z,101516.72
2023-01-31T16:15:29.318Z,101512.44
2023-01-31T16:18:14.704Z,101516.00
2023-01-31T16:20:48.998Z,101518.84
2023-01-31T16:23:27.042Z,101522.53
2023-01-31T16:26:14.971Z,101524.06
2023-01-31T16:28:46.761Z,101515.72
2023-01-31T16:31:15.730Z,101524.78
2023-01-31T16:34:06.664Z,101520.38
2023-01-31T16:36:50.965Z,101515.72
2023-01-31T16:39:30.113Z,101531.00
2023-01-31T16:41:58.316Z,101513.06
2023-01-31T16:44:45.184Z,101538.63
2023-01-31T16:47:30.079Z,101535.78
2023-01-31T16:50:15.018Z,101533.81
2023-01-31T16:53:18.990Z,101536.66
2023-01-31T16:55:45.580Z,101537.34
2023-01-31T16:58:32.922Z,101542.72
2023-01-31T17:01:13.411Z,101551.06
2023-01-31T17:03:40.239Z,101550.78
2023-01-31T17:06:07.104Z,101547.41
2023-01-31T17:08:37.731Z,101560.16
2023-01-31T17:11:05.030Z,101563.00
2023-01-31T17:13:31.369Z,101550.78
2023-01-31T17:15:57.780Z,101562.13
2023-01-31T17:18:24.512Z,101562.28
2023-01-31T17:20:50.989Z,101554.91
2023-01-31T17:23:17.892Z,101562.28
2023-01-31T17:25:44.663Z,101572.88
2023-01-31T17:28:11.380Z,101573.47
2023-01-31T17:30:40.138Z,101570.34
2023-01-31T17:33:06.600Z,101578.56
2023-01-31T17:35:53.914Z,101566.09
2023-01-31T17:38:39.012Z,101571.50
2023-01-31T17:41:24.713Z,101568.94
2023-01-31T17:43:51.348Z,101570.47
2023-01-31T17:46:19.327Z,101572.34
2023-01-31T17:48:45.805Z,101566.97
2023-01-31T17:51:14.709Z,101565.25
2023-01-31T17:53:49.854Z,101566.09
2023-01-31T17:56:17.761Z,101562.41
2023-01-31T17:58:44.201Z,101563.13
2023-01-31T18:01:13.967Z,101559.72
2023-01-31T18:03:43.161Z,101555.34
2023-01-31T18:06:09.922Z,101550.81
2023-01-31T18:08:36.742Z,101553.66
2023-01-31T18:11:04.922Z,101544.28
2023-01-31T18:13:31.461Z,101547.13
2023-01-31T18:16:10.251Z,101537.22
2023-01-31T18:18:43.150Z,101530.69
2023-01-31T18:21:13.878Z,101536.06
2023-01-31T18:23:54.193Z,101536.75
2023-01-31T18:26:24.855Z,101538.63
2023-01-31T18:28:51.482Z,101540.31
2023-01-31T18:31:18.042Z,101536.59
2023-01-31T18:33:47.694Z,101528.66
2023-01-31T18:36:33.188Z,101527.13
2023-01-31T18:38:59.753Z,101526.56
2023-01-31T18:41:26.516Z,101523.84
2023-01-31T18:43:57.511Z,101523.16
2023-01-31T18:46:25.501Z,101533.75
2023-01-31T18:48:52.651Z,101522.59
2023-01-31T19:06:23.226Z,101521.34
2023-01-31T19:08:54.243Z,101529.56
2023-01-31T19:11:22.899Z,101537.22
2023-01-31T19:13:49.855Z,101532.13
2023-01-31T19:16:22.639Z,101543.47
2023-01-31T19:18:50.388Z,101538.09
2023-01-31T19:21:21.989Z,101535.00
2023-01-31T19:23:49.346Z,101542.94
2023-01-31T19:26:17.337Z,101547.19
2023-01-31T19:28:45.172Z,101537.00
2023-01-31T19:31:14.794Z,101534.63
2023-01-31T19:33:41.709Z,101528.53
2023-01-31T19:36:14.039Z,101531.38
2023-01-31T19:38:41.316Z,101533.06
2023-01-31T19:41:10.583Z,101534.75
2023-01-31T19:43:37.142Z,101529.66
2023-01-31T19:46:06.571Z,101528.84
2023-01-31T19:48:33.555Z,101534.06
2023-01-31T19:51:09.778Z,101533.06
2023-01-31T19:53:37.224Z,101539.31
2023-01-31T19:56:04.272Z,101533.63
2023-01-31T19:58:33.910Z,101537.59
2023-01-31T20:01:04.894Z,101535.91
2023-01-31T20:03:31.707Z,101534.22
2023-01-31T20:06:07.851Z,101534.91
2023-01-31T20:08:35.424Z,101537.03
2023-01-31T20:11:02.540Z,101536.03
2023-01-31T20:13:29.108Z,101540.56
2023-01-31T20:16:06.652Z,101551.03
2023-01-31T20:18:34.701Z,101550.59
2023-01-31T20:21:01.419Z,101541.84
2023-01-31T20:23:28.998Z,101555.97
2023-01-31T20:25:56.956Z,101549.63
2023-01-31T20:28:24.785Z,101546.53
2023-01-31T20:30:51.944Z,101546.22
2023-01-31T20:33:19.313Z,101544.38
2023-01-31T20:35:46.654Z,101554.00
2023-01-31T20:38:15.449Z,101544.25
2023-01-31T20:40:41.983Z,101557.94
2023-01-31T20:43:08.407Z,101548.63
2023-01-31T20:45:35.280Z,101551.47
2023-01-31T20:48:01.882Z,101559.09
2023-01-31T20:50:28.562Z,101553.00
2023-01-31T20:52:55.802Z,101546.09
2023-01-31T20:55:24.242Z,101516.78
2023-01-31T20:58:02.669Z,101551.16
2023-01-31T21:00:29.136Z,101556.25
2023-01-31T21:02:55.728Z,101558.94
2023-01-31T21:05:24.045Z,101564.47
2023-01-31T21:07:50.624Z,101565.19
2023-01-31T21:10:17.584Z,101563.88
2023-01-31T21:12:44.482Z,101571.41
2023-01-31T21:15:11.117Z,101570.69
2023-01-31T21:17:40.429Z,101554.56
2023-01-31T21:20:08.080Z,101555.69
2023-01-31T21:22:35.542Z,101555.81
2023-01-31T21:25:02.320Z,101556.25
2023-01-31T21:27:29.208Z,101546.78
2023-01-31T21:29:55.826Z,101542.09
2023-01-31T21:32:22.445Z,101538.72
2023-01-31T21:34:48.918Z,101534.16
2023-01-31T21:37:15.525Z,101529.25
2023-01-31T21:39:42.019Z,101525.84
2023-01-31T21:42:16.483Z,101519.06
2023-01-31T21:44:43.905Z,101505.91
2023-01-31T21:47:10.987Z,101514.41
2023-01-31T21:49:37.513Z,101519.78
2023-01-31T21:52:05.182Z,101513.53
2023-01-31T21:54:32.008Z,101500.81
2023-01-31T21:56:58.706Z,101509.88
2023-01-31T21:59:25.704Z,101509.88
2023-01-31T22:01:52.306Z,101511.72
2023-01-31T22:04:23.313Z,101513.25
2023-01-31T22:06:50.665Z,101522.03
2023-01-31T22:09:17.570Z,101520.31
2023-01-31T22:11:44.566Z,101506.59
2023-01-31T22:14:13.639Z,101501.22
2023-01-31T22:16:40.842Z,101491.59
2023-01-31T22:19:07.710Z,101494.28
2023-01-31T22:21:36.735Z,101497.69
2023-01-31T22:24:06.181Z,101489.78
2023-01-31T22:26:34.545Z,101486.09
2023-01-31T22:29:03.380Z,101483.84
2023-01-31T22:31:30.495Z,101483.84
2023-01-31T22:33:57.339Z,101474.75
2023-01-31T22:36:26.681Z,101483.22
2023-01-31T22:38:53.363Z,101492.88
2023-01-31T22:41:20.425Z,101477.84
2023-01-31T22:43:49.859Z,101480.53
2023-01-31T22:46:17.465Z,101483.81
2023-01-31T22:48:43.978Z,101473.75
2023-01-31T22:51:12.747Z,101468.53
2023-01-31T22:53:39.986Z,101458.59
2023-01-31T22:56:09.782Z,101463.81
2023-01-31T22:58:36.500Z,101462.84
2023-01-31T23:01:10.305Z,101466.22
2023-01-31T23:03:36.834Z,101471.59
2023-01-31T23:06:04.112Z,101471.75
2023-01-31T23:08:30.595Z,101467.91
2023-01-31T23:11:02.443Z,101469.22
2023-01-31T23:13:28.921Z,101461.13
2023-01-31T23:15:55.985Z,101457.78
2023-01-31T23:18:22.418Z,101461.13
2023-01-31T23:20:48.909Z,101460.31
2023-01-31T23:23:15.429Z,101456.63
2023-01-31T23:25:41.906Z,101449.41
2023-01-31T23:28:08.428Z,101455.47
2023-01-31T23:30:35.174Z,101451.25
2023-01-31T23:33:01.598Z,101447.56
2023-01-31T23:35:28.420Z,101451.91
2023-01-31T23:37:54.954Z,101452.78
2023-01-31T23:40:21.903Z,101446.41
2023-01-31T23:42:48.528Z,101441.75
2023-01-31T23:45:15.078Z,101446.41
2023-01-31T23:47:43.177Z,101457.88
2023-01-31T23:50:10.847Z,101458.59
2023-01-31T23:52:37.293Z,101448.94
2023-01-31T23:55:04.077Z,101452.22
2023-01-31T23:57:30.614Z,101451.19
2023-01-31T23:59:57.121Z,101461.56
